sensor_id;sensor_type;location;lat;lon;timestamp;pressure;altitude;pressure_sealevel;temperature;humidity
19236;BME280;9752;54.270;12.470;2023-02-13T00:02:39;103745.72;;;6.47;100.00
19236;BME280;9752;54.270;12.470;2023-02-13T00:07:40;103737.44;;;6.50;100.00
19236;BME280;9752;54.270;12.470;2023-02-13T00:12:43;103732.09;;;6.48;100.00
19236;BME280;9752;54.270;12.470;2023-02-13T00:17:45;103733.94;;;6.49;100.00
19236;BME280;9752;54.270;12.470;2023-02-13T00:22:47;103737.63;;;6.51;100.00
19236;BME280;9752;54.270;12.470;2023-02-13T00:27:51;103736.72;;;6.51;100.00
19236;BME280;9752;54.270;12.470;2023-02-13T00:32:53;103721.78;;;6.48;100.00
19236;BME280;9752;54.270;12.470;2023-02-13T00:37:57;103722.16;;;6.51;100.00
19236;BME280;9752;54.270;12.470;2023-02-13T00:43:00;103716.63;;;6.48;100.00
19236;BME280;9752;54.270;12.470;2023-02-13T00:48:02;103719.56;;;6.44;100.00
19236;BME280;9752;54.270;12.470;2023-02-13T00:53:04;103715.69;;;6.48;100.00
19236;BME280;9752;54.270;12.470;2023-02-13T00:58:07;103719.34;;;6.42;100.00
19236;BME280;9752;54.270;12.470;2023-02-13T01:03:09;103714.22;;;6.50;100.00
19236;BME280;9752;54.270;12.470;2023-02-13T01:08:14;103717.16;;;6.45;100.00
19236;BME280;9752;54.270;12.470;2023-02-13T01:13:17;103707.22;;;6.49;100.00
19236;BME280;9752;54.270;12.470;2023-02-13T01:18:19;103711.09;;;6.45;100.00
19236;BME280;9752;54.270;12.470;2023-02-13T01:23:21;103716.59;;;6.41;100.00
19236;BME280;9752;54.270;12.470;2023-02-13T01:28:26;103716.25;;;6.45;100.00
19236;BME280;9752;54.270;12.470;2023-02-13T01:33:28;103717.34;;;6.40;100.00
19236;BME280;9752;54.270;12.470;2023-02-13T01:38:30;103716.75;;;6.35;100.00
19236;BME280;9752;54.270;12.470;2023-02-13T01:43:49;103714.91;;;6.34;100.00
19236;BME280;9752;54.270;12.470;2023-02-13T01:48:55;103699.41;;;6.27;100.00
19236;BME280;9752;54.270;12.470;2023-02-13T01:54:02;103697.22;;;6.30;100.00
19236;BME280;9752;54.270;12.470;2023-02-13T01:59:10;103686.38;;;6.33;100.00
19236;BME280;9752;54.270;12.470;2023-02-13T02:04:16;103685.66;;;6.34;100.00
19236;BME280;9752;54.270;12.470;2023-02-13T02:09:24;103696.28;;;6.30;100.00
19236;BME280;9752;54.270;12.470;2023-02-13T02:14:29;103683.59;;;6.31;100.00
19236;BME280;9752;54.270;12.470;2023-02-13T02:19:37;103683.78;;;6.33;100.00
19236;BME280;9752;54.270;12.470;2023-02-13T02:24:50;103693.00;;;6.31;100.00
19236;BME280;9752;54.270;12.470;2023-02-13T02:35:42;103685.81;;;6.28;100.00
19236;BME280;9752;54.270;12.470;2023-02-13T02:40:53;103683.00;;;6.19;100.00
19236;BME280;9752;54.270;12.470;2023-02-13T02:46:02;103672.13;;;6.15;100.00
19236;BME280;9752;54.270;12.470;2023-02-13T02:51:18;103670.06;;;6.12;100.00
19236;BME280;9752;54.270;12.470;2023-02-13T02:56:26;103664.22;;;6.13;100.00
19236;BME280;9752;54.270;12.470;2023-02-13T03:01:32;103668.41;;;6.13;100.00
19236;BME280;9752;54.270;12.470;2023-02-13T03:06:57;103670.06;;;6.12;100.00
19236;BME280;9752;54.270;12.470;2023-02-13T03:12:00;103659.06;;;6.13;100.00
19236;BME280;9752;54.270;12.470;2023-02-13T03:17:19;103653.69;;;6.12;100.00
19236;BME280;9752;54.270;12.470;2023-02-13T03:22:48;103658.31;;;6.14;100.00
19236;BME280;9752;54.270;12.470;2023-02-13T03:27:56;103656.84;;;6.16;100.00
19236;BME280;9752;54.270;12.470;2023-02-13T03:33:31;103653.72;;;6.19;100.00
19236;BME280;9752;54.270;12.470;2023-02-13T03:38:42;103655.72;;;6.14;100.00
19236;BME280;9752;54.270;12.470;2023-02-13T03:43:55;103660.00;;;6.21;100.00
19236;BME280;9752;54.270;12.470;2023-02-13T03:49:00;103653.72;;;6.19;100.00
19236;BME280;9752;54.270;12.470;2023-02-13T03:54:25;103657.97;;;6.25;100.00
19236;BME280;9752;54.270;12.470;2023-02-13T03:59:46;103655.56;;;6.20;100.00
19236;BME280;9752;54.270;12.470;2023-02-13T04:04:51;103657.06;;;6.25;100.00
19236;BME280;9752;54.270;12.470;2023-02-13T04:09:58;103659.25;;;6.22;100.00
19236;BME280;9752;54.270;12.470;2023-02-13T04:15:06;103659.63;;;6.25;100.00
19236;BME280;9752;54.270;12.470;2023-02-13T04:20:11;103663.88;;;6.24;100.00
19236;BME280;9752;54.270;12.470;2023-02-13T04:25:16;103673.25;;;6.24;100.00
19236;BME280;9752;54.270;12.470;2023-02-13T04:30:18;103662.03;;;6.23;100.00
19236;BME280;9752;54.270;12.470;2023-02-13T04:35:20;103655.56;;;6.20;100.00
19236;BME280;9752;54.270;12.470;2023-02-13T04:40:23;103667.69;;;6.14;100.00
19236;BME280;9752;54.270;12.470;2023-02-13T04:45:25;103661.66;;;6.20;100.00
19236;BME280;9752;54.270;12.470;2023-02-13T04:50:27;103659.25;;;6.15;100.00
19236;BME280;9752;54.270;12.470;2023-02-13T04:55:30;103662.75;;;6.15;100.00
19236;BME280;9752;54.270;12.470;2023-02-13T05:00:31;103669.34;;;6.13;100.00
19236;BME280;9752;54.270;12.470;2023-02-13T05:05:34;103670.28;;;6.14;100.00
19236;BME280;9752;54.270;12.470;2023-02-13T05:10:37;103673.41;;;6.11;100.00
19236;BME280;9752;54.270;12.470;2023-02-13T05:15:39;103670.81;;;6.11;100.00
19236;BME280;9752;54.270;12.470;2023-02-13T05:20:41;103677.81;;;6.12;100.00
19236;BME280;9752;54.270;12.470;2023-02-13T05:25:44;103677.81;;;6.12;100.00
19236;BME280;9752;54.270;12.470;2023-02-13T05:30:46;103673.41;;;6.11;100.00
19236;BME280;9752;54.270;12.470;2023-02-13T05:35:47;103679.81;;;6.08;100.00
19236;BME280;9752;54.270;12.470;2023-02-13T05:40:50;103689.91;;;5.99;100.00
19236;BME280;9752;54.270;12.470;2023-02-13T05:46:00;103694.13;;;5.98;100.00
19236;BME280;9752;54.270;12.470;2023-02-13T05:51:02;103712.28;;;5.93;100.00
19236;BME280;9752;54.270;12.470;2023-02-13T05:56:06;103704.56;;;5.93;100.00
19236;BME280;9752;54.270;12.470;2023-02-13T06:01:08;103705.00;;;5.96;100.00
19236;BME280;9752;54.270;12.470;2023-02-13T06:06:09;103709.31;;;5.90;100.00
19236;BME280;9752;54.270;12.470;2023-02-13T06:11:13;103708.19;;;5.87;100.00
19236;BME280;9752;54.270;12.470;2023-02-13T06:16:15;103711.13;;;5.83;100.00
19236;BME280;9752;54.270;12.470;2023-02-13T06:21:16;103716.47;;;5.85;100.00
19236;BME280;9752;54.270;12.470;2023-02-13T06:26:19;103717.19;;;5.84;100.00
19236;BME280;9752;54.270;12.470;2023-02-13T06:31:22;103710.91;;;5.82;100.00
19236;BME280;9752;54.270;12.470;2023-02-13T06:36:24;103711.13;;;5.83;100.00
19236;BME280;9752;54.270;12.470;2023-02-13T06:41:27;103718.84;;;5.83;100.00
19236;BME280;9752;54.270;12.470;2023-02-13T06:46:29;103724.00;;;5.83;100.00
19236;BME280;9752;54.270;12.470;2023-02-13T06:51:30;103720.38;;;5.89;100.00
19236;BME280;9752;54.270;12.470;2023-02-13T06:56:33;103720.56;;;5.90;100.00
19236;BME280;9752;54.270;12.470;2023-02-13T07:01:35;103715.41;;;5.90;100.00
19236;BME280;9752;54.270;12.470;2023-02-13T07:06:37;103718.16;;;5.92;100.00
19236;BME280;9752;54.270;12.470;2023-02-13T07:11:40;103717.44;;;5.93;100.00
19236;BME280;9752;54.270;12.470;2023-02-13T07:16:41;103717.88;;;5.96;100.00
19236;BME280;9752;54.270;12.470;2023-02-13T07:21:43;103723.19;;;5.97;100.00
19236;BME280;9752;54.270;12.470;2023-02-13T07:26:46;103716.06;;;6.02;100.00
19236;BME280;9752;54.270;12.470;2023-02-13T07:31:48;103717.88;;;6.03;100.00
19236;BME280;9752;54.270;12.470;2023-02-13T07:36:49;103730.78;;;6.03;100.00
19236;BME280;9752;54.270;12.470;2023-02-13T07:41:52;103732.69;;;6.11;100.00
19236;BME280;9752;54.270;12.470;2023-02-13T07:46:59;103742.22;;;6.12;100.00
19236;BME280;9752;54.270;12.470;2023-02-13T07:52:01;103742.63;;;6.15;100.00
19236;BME280;9752;54.270;12.470;2023-02-13T07:57:04;103740.06;;;6.15;100.00
19236;BME280;9752;54.270;12.470;2023-02-13T08:02:09;103731.78;;;6.18;100.00
19236;BME280;9752;54.270;12.470;2023-02-13T08:07:11;103741.53;;;6.13;100.00
19236;BME280;9752;54.270;12.470;2023-02-13T08:12:14;103733.69;;;6.26;100.00
19236;BME280;9752;54.270;12.470;2023-02-13T08:17:16;103740.97;;;6.16;100.00
19236;BME280;9752;54.270;12.470;2023-02-13T08:22:18;103743.97;;;6.26;100.00
19236;BME280;9752;54.270;12.470;2023-02-13T08:27:21;103743.34;;;6.14;100.00
19236;BME280;9752;54.270;12.470;2023-02-13T08:32:23;103736.63;;;6.29;100.00
19236;BME280;9752;54.270;12.470;2023-02-13T08:37:25;103742.53;;;6.28;100.00
19236;BME280;9752;54.270;12.470;2023-02-13T08:42:28;103741.72;;;6.22;100.00
19236;BME280;9752;54.270;12.470;2023-02-13T08:47:30;103745.84;;;6.34;100.00
19236;BME280;9752;54.270;12.470;2023-02-13T08:52:32;103741.25;;;6.39;100.00
19236;BME280;9752;54.270;12.470;2023-02-13T08:57:35;103751.53;;;6.32;100.00
19236;BME280;9752;54.270;12.470;2023-02-13T09:02:36;103748.63;;;6.43;100.00
19236;BME280;9752;54.270;12.470;2023-02-13T09:07:38;103750.25;;;6.35;100.00
19236;BME280;9752;54.270;12.470;2023-02-13T09:12:41;103750.50;;;6.44;100.00
19236;BME280;9752;54.270;12.470;2023-02-13T09:17:43;103748.28;;;6.40;100.00
19236;BME280;9752;54.270;12.470;2023-02-13T09:22:44;103757.66;;;6.47;100.00
19236;BME280;9752;54.270;12.470;2023-02-13T09:27:47;103763.78;;;6.47;100.00
19236;BME280;9752;54.270;12.470;2023-02-13T09:32:49;103753.63;;;6.49;100.00
19236;BME280;9752;54.270;12.470;2023-02-13T09:37:51;103759.63;;;6.28;100.00
19236;BME280;9752;54.270;12.470;2023-02-13T09:43:03;103762.38;;;6.29;100.00
19236;BME280;9752;54.270;12.470;2023-02-13T09:48:05;103769.63;;;6.39;100.00
19236;BME280;9752;54.270;12.470;2023-02-13T09:53:18;103773.69;;;6.44;100.00
19236;BME280;9752;54.270;12.470;2023-02-13T09:58:40;103763.06;;;6.55;100.00
19236;BME280;9752;54.270;12.470;2023-02-13T10:03:44;103771.13;;;6.44;100.00
19236;BME280;9752;54.270;12.470;2023-02-13T10:08:58;103770.41;;;6.52;100.00
19236;BME280;9752;54.270;12.470;2023-02-13T10:14:12;103756.56;;;6.44;100.00
19236;BME280;9752;54.270;12.470;2023-02-13T10:19:29;103760.09;;;6.52;100.00
19236;BME280;9752;54.270;12.470;2023-02-13T10:24:38;103763.50;;;6.73;100.00
19236;BME280;9752;54.270;12.470;2023-02-13T10:29:44;103767.16;;;6.68;100.00
19236;BME280;9752;54.270;12.470;2023-02-13T10:35:17;103764.38;;;6.59;100.00
19236;BME280;9752;54.270;12.470;2023-02-13T10:40:19;103785.22;;;6.75;100.00
19236;BME280;9752;54.270;12.470;2023-02-13T10:45:32;103782.34;;;6.44;100.00
19236;BME280;9752;54.270;12.470;2023-02-13T10:50:47;103773.94;;;6.53;100.00
19236;BME280;9752;54.270;12.470;2023-02-13T10:56:18;103772.69;;;6.71;100.00
19236;BME280;9752;54.270;12.470;2023-02-13T11:01:27;103776.72;;;6.61;100.00
19236;BME280;9752;54.270;12.470;2023-02-13T11:06:34;103770.25;;;6.58;100.00
19236;BME280;9752;54.270;12.470;2023-02-13T11:11:39;103776.38;;;6.73;100.00
19236;BME280;9752;54.270;12.470;2023-02-13T11:16:48;103777.13;;;6.72;100.00
19236;BME280;9752;54.270;12.470;2023-02-13T11:21:54;103772.97;;;7.01;100.00
19236;BME280;9752;54.270;12.470;2023-02-13T11:26:59;103762.41;;;6.78;100.00
19236;BME280;9752;54.270;12.470;2023-02-13T11:32:09;103770.16;;;6.78;100.00
19236;BME280;9752;54.270;12.470;2023-02-13T11:37:21;103770.66;;;6.75;100.00
19236;BME280;9752;54.270;12.470;2023-02-13T11:42:30;103770.31;;;6.72;100.00
19236;BME280;9752;54.270;12.470;2023-02-13T11:47:38;103775.50;;;6.79;100.00
19236;BME280;9752;54.270;12.470;2023-02-13T11:52:41;103768.13;;;6.82;100.00
19236;BME280;9752;54.270;12.470;2023-02-13T11:57:55;103766.78;;;6.64;100.00
19236;BME280;9752;54.270;12.470;2023-02-13T12:02:58;103765.25;;;6.52;100.00
19236;BME280;9752;54.270;12.470;2023-02-13T12:08:00;103771.81;;;6.84;100.00
19236;BME280;9752;54.270;12.470;2023-02-13T12:13:06;103783.78;;;6.84;100.00
19236;BME280;9752;54.270;12.470;2023-02-13T12:18:19;103764.25;;;6.86;100.00
19236;BME280;9752;54.270;12.470;2023-02-13T12:23:29;103760.63;;;7.13;100.00
19236;BME280;9752;54.270;12.470;2023-02-13T12:28:45;103765.78;;;7.13;100.00
19236;BME280;9752;54.270;12.470;2023-02-13T12:34:44;103762.09;;;6.96;100.00
19236;BME280;9752;54.270;12.470;2023-02-13T12:40:01;103776.38;;;6.73;100.00
19236;BME280;9752;54.270;12.470;2023-02-13T12:45:22;103773.88;;;7.01;100.00
19236;BME280;9752;54.270;12.470;2023-02-13T12:50:36;103758.78;;;7.04;100.00
19236;BME280;9752;54.270;12.470;2023-02-13T12:56:03;103756.59;;;7.22;100.00
19236;BME280;9752;54.270;12.470;2023-02-13T13:01:19;103758.03;;;7.06;100.00
19236;BME280;9752;54.270;12.470;2023-02-13T13:06:45;103748.47;;;7.04;100.00
19236;BME280;9752;54.270;12.470;2023-02-13T13:12:07;103745.84;;;6.83;100.00
19236;BME280;9752;54.270;12.470;2023-02-13T13:17:24;103727.06;;;6.91;100.00
19236;BME280;9752;54.270;12.470;2023-02-13T13:22:32;103715.22;;;6.79;100.00
19236;BME280;9752;54.270;12.470;2023-02-13T13:27:37;103719.31;;;7.06;100.00
19236;BME280;9752;54.270;12.470;2023-02-13T13:32:40;103696.09;;;6.91;100.00
19236;BME280;9752;54.270;12.470;2023-02-13T13:37:50;103701.97;;;6.90;100.00
19236;BME280;9752;54.270;12.470;2023-02-13T13:43:04;103700.66;;;6.72;100.00
19236;BME280;9752;54.270;12.470;2023-02-13T13:48:24;103691.09;;;6.78;100.00
19236;BME280;9752;54.270;12.470;2023-02-13T13:53:33;103690.75;;;6.90;100.00
19236;BME280;9752;54.270;12.470;2023-02-13T13:58:38;103693.88;;;6.87;100.00
19236;BME280;9752;54.270;12.470;2023-02-13T14:03:41;103690.72;;;6.82;100.00
19236;BME280;9752;54.270;12.470;2023-02-13T14:08:56;103689.09;;;6.83;100.00
19236;BME280;9752;54.270;12.470;2023-02-13T14:13:59;103686.09;;;6.73;100.00
19236;BME280;9752;54.270;12.470;2023-02-13T14:19:01;103688.09;;;6.54;100.00
19236;BME280;9752;54.270;12.470;2023-02-13T14:24:10;103685.31;;;6.45;100.00
19236;BME280;9752;54.270;12.470;2023-02-13T14:29:25;103690.97;;;6.28;100.00
19236;BME280;9752;54.270;12.470;2023-02-13T14:34:30;103699.53;;;6.14;100.00
19236;BME280;9752;54.270;12.470;2023-02-13T14:39:34;103707.06;;;6.05;100.00
19236;BME280;9752;54.270;12.470;2023-02-13T14:44:43;103705.63;;;5.87;100.00
19236;BME280;9752;54.270;12.470;2023-02-13T14:49:48;103708.69;;;5.78;100.00
19236;BME280;9752;54.270;12.470;2023-02-13T14:54:55;103688.97;;;5.71;100.00
19236;BME280;9752;54.270;12.470;2023-02-13T15:00:03;103698.44;;;5.85;100.00
19236;BME280;9752;54.270;12.470;2023-02-13T15:05:13;103682.22;;;5.79;100.00
19236;BME280;9752;54.270;12.470;2023-02-13T15:10:30;103689.69;;;5.70;100.00
19236;BME280;9752;54.270;12.470;2023-02-13T15:15:35;103680.88;;;5.68;100.00
19236;BME280;9752;54.270;12.470;2023-02-13T15:20:40;103682.47;;;5.60;100.00
19236;BME280;9752;54.270;12.470;2023-02-13T15:25:45;103684.06;;;5.53;100.00
19236;BME280;9752;54.270;12.470;2023-02-13T15:30:54;103693.19;;;5.43;100.00
19236;BME280;9752;54.270;12.470;2023-02-13T15:35:58;103679.91;;;5.33;100.00
19236;BME280;9752;54.270;12.470;2023-02-13T15:41:03;103690.63;;;5.23;100.00
19236;BME280;9752;54.270;12.470;2023-02-13T15:46:17;103675.09;;;5.09;100.00
19236;BME280;9752;54.270;12.470;2023-02-13T15:51:21;103697.47;;;5.03;100.00
19236;BME280;9752;54.270;12.470;2023-02-13T15:56:25;103687.94;;;4.89;100.00
19236;BME280;9752;54.270;12.470;2023-02-13T16:01:28;103693.75;;;4.81;100.00
19236;BME280;9752;54.270;12.470;2023-02-13T16:06:32;103702.31;;;4.74;100.00
19236;BME280;9752;54.270;12.470;2023-02-13T16:11:36;103705.97;;;4.56;100.00
19236;BME280;9752;54.270;12.470;2023-02-13T16:16:48;103705.19;;;4.50;100.00
19236;BME280;9752;54.270;12.470;2023-02-13T16:21:52;103721.00;;;4.53;100.00
19236;BME280;9752;54.270;12.470;2023-02-13T16:26:56;103717.34;;;4.38;100.00
19236;BME280;9752;54.270;12.470;2023-02-13T16:32:11;103722.16;;;4.42;100.00
19236;BME280;9752;54.270;12.470;2023-02-13T16:37:26;103727.13;;;4.28;100.00
19236;BME280;9752;54.270;12.470;2023-02-13T16:42:29;103721.69;;;4.19;100.00
19236;BME280;9752;54.270;12.470;2023-02-13T16:47:31;103738.41;;;4.23;100.00
19236;BME280;9752;54.270;12.470;2023-02-13T16:52:36;103744.41;;;4.16;100.00
19236;BME280;9752;54.270;12.470;2023-02-13T16:57:39;103749.25;;;3.95;100.00
19236;BME280;9752;54.270;12.470;2023-02-13T17:02:44;103756.84;;;3.87;100.00
19236;BME280;9752;54.270;12.470;2023-02-13T17:07:48;103764.22;;;3.91;100.00
19236;BME280;9752;54.270;12.470;2023-02-13T17:12:53;103767.59;;;3.85;100.00
19236;BME280;9752;54.270;12.470;2023-02-13T17:17:55;103779.22;;;3.88;100.00
19236;BME280;9752;54.270;12.470;2023-02-13T17:22:58;103789.50;;;3.76;100.00
19236;BME280;9752;54.270;12.470;2023-02-13T17:28:11;103778.56;;;3.71;100.00
19236;BME280;9752;54.270;12.470;2023-02-13T17:33:16;103789.16;;;3.67;100.00
19236;BME280;9752;54.270;12.470;2023-02-13T17:38:19;103790.88;;;3.74;100.00
19236;BME280;9752;54.270;12.470;2023-02-13T17:43:22;103799.94;;;3.77;100.00
19236;BME280;9752;54.270;12.470;2023-02-13T17:48:26;103809.53;;;3.91;100.00
19236;BME280;9752;54.270;12.470;2023-02-13T17:53:29;103806.00;;;3.90;100.00
19236;BME280;9752;54.270;12.470;2023-02-13T17:58:32;103796.78;;;3.98;100.00
19236;BME280;9752;54.270;12.470;2023-02-13T18:03:34;103796.00;;;4.18;100.00
19236;BME280;9752;54.270;12.470;2023-02-13T18:08:35;103800.69;;;4.15;100.00
19236;BME280;9752;54.270;12.470;2023-02-13T18:13:38;103796.50;;;4.28;100.00
19236;BME280;9752;54.270;12.470;2023-02-13T18:18:47;103793.81;;;4.34;100.00
19236;BME280;9752;54.270;12.470;2023-02-13T18:23:50;103802.44;;;4.47;100.00
19236;BME280;9752;54.270;12.470;2023-02-13T18:28:54;103798.41;;;4.49;100.00
19236;BME280;9752;54.270;12.470;2023-02-13T18:33:56;103804.56;;;4.57;100.00
19236;BME280;9752;54.270;12.470;2023-02-13T18:38:58;103796.97;;;4.64;100.00
19236;BME280;9752;54.270;12.470;2023-02-13T18:44:01;103806.44;;;4.71;100.00
19236;BME280;9752;54.270;12.470;2023-02-13T18:49:02;103801.19;;;4.63;100.00
19236;BME280;9752;54.270;12.470;2023-02-13T18:54:05;103795.41;;;4.72;100.00
19236;BME280;9752;54.270;12.470;2023-02-13T18:59:08;103795.59;;;4.73;100.00
19236;BME280;9752;54.270;12.470;2023-02-13T19:04:11;103793.47;;;4.76;100.00
19236;BME280;9752;54.270;12.470;2023-02-13T19:09:13;103787.03;;;4.80;100.00
19236;BME280;9752;54.270;12.470;2023-02-13T19:14:16;103799.41;;;4.82;100.00
19236;BME280;9752;54.270;12.470;2023-02-13T19:19:18;103802.19;;;4.84;100.00
19236;BME280;9752;54.270;12.470;2023-02-13T19:24:19;103808.63;;;4.87;100.00
19236;BME280;9752;54.270;12.470;2023-02-13T19:29:23;103806.19;;;4.82;100.00
19236;BME280;9752;54.270;12.470;2023-02-13T19:34:24;103809.38;;;4.74;100.00
19236;BME280;9752;54.270;12.470;2023-02-13T19:39:26;103805.69;;;4.72;100.00
19236;BME280;9752;54.270;12.470;2023-02-13T19:44:30;103811.25;;;4.75;100.00
19236;BME280;9752;54.270;12.470;2023-02-13T19:49:32;103816.50;;;4.69;100.00
19236;BME280;9752;54.270;12.470;2023-02-13T19:54:34;103826.69;;;4.75;100.00
19236;BME280;9752;54.270;12.470;2023-02-13T19:59:37;103830.16;;;4.75;100.00
19236;BME280;9752;54.270;12.470;2023-02-13T20:04:38;103830.88;;;4.74;100.00
19236;BME280;9752;54.270;12.470;2023-02-13T20:09:40;103842.72;;;4.66;100.00
19236;BME280;9752;54.270;12.470;2023-02-13T20:14:43;103842.91;;;4.68;100.00
19236;BME280;9752;54.270;12.470;2023-02-13T20:19:45;103848.06;;;4.68;100.00
19236;BME280;9752;54.270;12.470;2023-02-13T20:24:47;103850.84;;;4.69;100.00
19236;BME280;9752;54.270;12.470;2023-02-13T20:29:50;103864.13;;;4.73;100.00
19236;BME280;9752;54.270;12.470;2023-02-13T20:34:52;103869.06;;;4.71;100.00
19236;BME280;9752;54.270;12.470;2023-02-13T20:39:53;103865.03;;;4.73;100.00
19236;BME280;9752;54.270;12.470;2023-02-13T20:44:57;103873.66;;;4.74;100.00
19236;BME280;9752;54.270;12.470;2023-02-13T20:49:58;103874.19;;;4.71;100.00
19236;BME280;9752;54.270;12.470;2023-02-13T20:55:00;103871.50;;;4.77;100.00
19236;BME280;9752;54.270;12.470;2023-02-13T21:00:05;103872.44;;;4.77;100.00
19236;BME280;9752;54.270;12.470;2023-02-13T21:05:08;103870.06;;;4.79;100.00
19236;BME280;9752;54.270;12.470;2023-02-13T21:10:10;103872.53;;;4.84;100.00
19236;BME280;9752;54.270;12.470;2023-02-13T21:15:13;103863.56;;;4.88;100.00
19236;BME280;9752;54.270;12.470;2023-02-13T21:20:15;103858.75;;;4.84;100.00
19236;BME280;9752;54.270;12.470;2023-02-13T21:25:16;103862.03;;;4.83;100.00
19236;BME280;9752;54.270;12.470;2023-02-13T21:30:20;103866.34;;;4.89;100.00
19236;BME280;9752;54.270;12.470;2023-02-13T21:35:22;103863.16;;;4.85;100.00
19236;BME280;9752;54.270;12.470;2023-02-13T21:40:23;103853.19;;;4.81;100.00
19236;BME280;9752;54.270;12.470;2023-02-13T21:45:27;103854.09;;;4.81;100.00
19236;BME280;9752;54.270;12.470;2023-02-13T21:50:28;103860.81;;;4.74;100.00
19236;BME280;9752;54.270;12.470;2023-02-13T21:55:30;103850.03;;;4.76;100.00
19236;BME280;9752;54.270;12.470;2023-02-13T22:00:33;103857.91;;;4.78;100.00
19236;BME280;9752;54.270;12.470;2023-02-13T22:05:35;103853.31;;;4.75;100.00
19236;BME280;9752;54.270;12.470;2023-02-13T22:10:36;103857.84;;;4.71;100.00
19236;BME280;9752;54.270;12.470;2023-02-13T22:15:39;103852.50;;;4.69;100.00
19236;BME280;9752;54.270;12.470;2023-02-13T22:20:41;103850.53;;;4.74;100.00
19236;BME280;9752;54.270;12.470;2023-02-13T22:25:46;103850.03;;;4.76;100.00
19236;BME280;9752;54.270;12.470;2023-02-13T22:30:49;103850.94;;;4.77;100.00
19236;BME280;9752;54.270;12.470;2023-02-13T22:35:50;103854.22;;;4.76;100.00
19236;BME280;9752;54.270;12.470;2023-02-13T22:40:52;103851.53;;;4.81;100.00
19236;BME280;9752;54.270;12.470;2023-02-13T22:46:01;103848.16;;;4.75;100.00
19236;BME280;9752;54.270;12.470;2023-02-13T22:51:03;103846.13;;;4.73;100.00
19236;BME280;9752;54.270;12.470;2023-02-13T22:56:06;103857.00;;;4.77;100.00
19236;BME280;9752;54.270;12.470;2023-02-13T23:01:10;103853.31;;;4.75;100.00
19236;BME280;9752;54.270;12.470;2023-02-13T23:06:13;103853.09;;;4.74;100.00
19236;BME280;9752;54.270;12.470;2023-02-13T23:11:15;103856.41;;;4.73;100.00
19236;BME280;9752;54.270;12.470;2023-02-13T23:16:37;103860.81;;;4.74;100.00
19236;BME280;9752;54.270;12.470;2023-02-13T23:21:57;103854.66;;;4.66;100.00
19236;BME280;9752;54.270;12.470;2023-02-13T23:26:58;103859.09;;;4.67;100.00
19236;BME280;9752;54.270;12.470;2023-02-13T23:32:02;103851.06;;;4.58;100.00
19236;BME280;9752;54.270;12.470;2023-02-13T23:37:03;103854.06;;;4.61;100.00
19236;BME280;9752;54.270;12.470;2023-02-13T23:42:05;103843.66;;;4.67;100.00
19236;BME280;9752;54.270;12.470;2023-02-13T23:47:08;103842.31;;;4.63;100.00
19236;BME280;9752;54.270;12.470;2023-02-13T23:52:10;103839.34;;;4.60;100.00
19236;BME280;9752;54.270;12.470;2023-02-13T23:57:12;103836.97;;;4.62;100.00
